Time;durP1;ratioP1;P1;durP2;ratioP2;P2;SDS_P1;SDS_P2;PMS_P1;PMS_P2;Temp;Humidity;BMP_temperature;BMP_pressure;BME280_temperature;BME280_humidity;BME280_pressure;Samples;Min_cycle;Max_cycle;Signal;HPM_P1;HPM_P2
2021/07/24 00:00:19;;;;;;;22.25;10.63;;;;;;;;;;6268953;22;20240;-88
2021/07/24 00:03:24;;;;;;;21.50;9.98;;;;;;;;;;6268868;22;20196;-89
2021/07/24 00:06:29;;;;;;;17.48;10.38;;;;;;;;;;6287134;22;20209;-90
2021/07/24 00:09:34;;;;;;;18.85;10.27;;;;;;;;;;6267289;22;20205;-90
2021/07/24 00:12:40;;;;;;;19.52;10.68;;;;;;;;;;6269463;22;20169;-89
2021/07/24 00:15:45;;;;;;;17.80;10.32;;;;;;;;;;6269967;22;20305;-91
2021/07/24 00:18:51;;;;;;;22.58;10.68;;;;;;;;;;6267762;22;20193;-89
2021/07/24 00:21:56;;;;;;;22.25;11.50;;;;;;;;;;6287660;22;20217;-88
2021/07/24 00:25:01;;;;;;;20.38;11.00;;;;;;;;;;6269993;22;20177;-86
2021/07/24 00:28:08;;;;;;;17.83;10.95;;;;;;;;;;6269737;22;20185;-89
2021/07/24 00:31:13;;;;;;;20.83;9.95;;;;;;;;;;6270567;22;20166;-88
2021/07/24 00:34:22;;;;;;;18.58;10.50;;;;;;;;;;6269540;22;20272;-88
2021/07/24 00:37:27;;;;;;;19.38;10.98;;;;;;;;;;6268068;22;20161;-89
2021/07/24 00:40:36;;;;;;;20.27;11.18;;;;;;;;;;6270703;22;20178;-89
2021/07/24 00:43:46;;;;;;;20.05;11.77;;;;;;;;;;6268452;22;20173;-88
2021/07/24 00:46:52;;;;;;;24.15;11.57;;;;;;;;;;6269520;22;20241;-88
2021/07/24 00:49:59;;;;;;;21.50;11.50;;;;;;;;;;6268897;22;20680;-88
2021/07/24 00:53:12;;;;;;;26.55;11.90;;;;;;;;;;6268961;22;20173;-89
2021/07/24 00:56:18;;;;;;;24.45;11.48;;;;;;;;;;6267605;22;20276;-89
2021/07/24 00:59:25;;;;;;;24.35;12.57;;;;;;;;;;6268494;22;20154;-88
2021/07/24 01:02:30;;;;;;;25.63;12.55;;;;;;;;;;6269566;22;20162;-89
2021/07/24 01:05:35;;;;;;;28.63;13.57;;;;;;;;;;6269008;22;20496;-88
2021/07/24 01:08:40;;;;;;;25.27;13.27;;;;;;;;;;6267278;22;20174;-88
2021/07/24 01:11:45;;;;;;;29.20;14.50;;;;;;;;;;6268435;22;20612;-89
2021/07/24 01:14:52;;;;;;;27.13;14.15;;;;;;;;;;6266831;22;20240;-88
2021/07/24 01:17:59;;;;;;;29.77;13.40;;;;;;;;;;6267919;22;20153;-88
2021/07/24 01:21:07;;;;;;;25.02;12.32;;;;;;;;;;6268853;22;20173;-87
2021/07/24 01:24:19;;;;;;;24.40;11.77;;;;;;;;;;6268523;22;20174;-89
2021/07/24 01:27:25;;;;;;;22.45;11.45;;;;;;;;;;6269678;22;20189;-89
2021/07/24 01:30:34;;;;;;;27.63;13.50;;;;;;;;;;6268855;22;20477;-89
2021/07/24 01:33:40;;;;;;;28.42;12.80;;;;;;;;;;6269516;22;20149;-88
2021/07/24 01:36:46;;;;;;;27.80;13.48;;;;;;;;;;6268753;22;20218;-89
2021/07/24 01:39:53;;;;;;;30.30;13.05;;;;;;;;;;6267659;22;20173;-87
2021/07/24 01:42:59;;;;;;;24.25;12.77;;;;;;;;;;6269650;22;20149;-88
2021/07/24 01:46:04;;;;;;;26.63;13.18;;;;;;;;;;6269013;22;20190;-89
2021/07/24 01:52:48;;;;;;;25.00;12.98;;;;;;;;;;6268745;22;20186;-89
2021/07/24 01:55:58;;;;;;;25.38;12.13;;;;;;;;;;6269377;22;20189;-89
2021/07/24 01:59:04;;;;;;;27.38;12.48;;;;;;;;;;6270045;22;20165;-88
2021/07/24 02:02:10;;;;;;;28.60;11.73;;;;;;;;;;6267628;22;20170;-88
2021/07/24 02:05:19;;;;;;;29.83;12.82;;;;;;;;;;6268069;22;20174;-88
2021/07/24 02:08:26;;;;;;;26.23;12.13;;;;;;;;;;6267902;22;20676;-89
2021/07/24 02:11:34;;;;;;;28.17;13.07;;;;;;;;;;6268386;22;20174;-89
2021/07/24 02:14:39;;;;;;;22.95;12.40;;;;;;;;;;6267768;22;20533;-87
2021/07/24 02:18:05;;;;;;;22.05;11.30;;;;;;;;;;6284759;22;20173;-88
2021/07/24 02:21:12;;;;;;;21.52;11.98;;;;;;;;;;6269434;22;20154;-89
2021/07/24 02:24:17;;;;;;;24.33;11.63;;;;;;;;;;6268688;22;20264;-88
2021/07/24 02:27:24;;;;;;;28.55;12.27;;;;;;;;;;6267462;22;20173;-88
2021/07/24 02:30:31;;;;;;;25.50;12.93;;;;;;;;;;6268802;22;20237;-88
2021/07/24 02:33:36;;;;;;;25.55;12.23;;;;;;;;;;6267103;22;20166;-89
2021/07/24 02:36:45;;;;;;;24.75;12.13;;;;;;;;;;6267828;22;20162;-89
2021/07/24 02:39:53;;;;;;;22.77;12.68;;;;;;;;;;6267586;22;20170;-89
2021/07/24 02:43:00;;;;;;;23.58;11.80;;;;;;;;;;6266824;22;20193;-88
2021/07/24 02:46:05;;;;;;;24.65;12.90;;;;;;;;;;6272474;22;20265;-88
2021/07/24 02:49:12;;;;;;;25.65;11.65;;;;;;;;;;6268849;22;20166;-87
2021/07/24 02:52:20;;;;;;;22.75;12.05;;;;;;;;;;6266750;22;20178;-89
2021/07/24 02:55:26;;;;;;;21.55;11.48;;;;;;;;;;6267266;22;20193;-89
2021/07/24 02:58:33;;;;;;;24.23;12.00;;;;;;;;;;6267273;22;20174;-89
2021/07/24 03:01:40;;;;;;;18.55;10.70;;;;;;;;;;6285631;22;20170;-86
2021/07/24 03:04:46;;;;;;;19.50;11.18;;;;;;;;;;6268599;22;20162;-88
2021/07/24 03:07:51;;;;;;;23.13;11.68;;;;;;;;;;6267831;22;20170;-88
2021/07/24 03:10:56;;;;;;;23.45;11.25;;;;;;;;;;6267942;22;20170;-88
2021/07/24 03:14:02;;;;;;;21.88;11.80;;;;;;;;;;6268798;22;20188;-89
2021/07/24 03:17:07;;;;;;;25.60;12.85;;;;;;;;;;6267304;22;20165;-88
2021/07/24 03:20:12;;;;;;;25.08;12.18;;;;;;;;;;6267108;22;20166;-88
2021/07/24 03:23:17;;;;;;;23.98;12.25;;;;;;;;;;6269720;22;20664;-88
2021/07/24 03:26:22;;;;;;;22.17;12.32;;;;;;;;;;6270499;22;20648;-88
2021/07/24 03:29:28;;;;;;;26.95;13.60;;;;;;;;;;6270275;22;20173;-88
2021/07/24 03:32:33;;;;;;;22.05;11.77;;;;;;;;;;6270287;22;20169;-88
2021/07/24 03:35:38;;;;;;;25.65;13.40;;;;;;;;;;6268308;22;20645;-86
2021/07/24 03:38:43;;;;;;;27.70;12.90;;;;;;;;;;6268953;22;20184;-88
2021/07/24 03:41:49;;;;;;;26.20;13.23;;;;;;;;;;6270181;22;20166;-88
2021/07/24 03:44:55;;;;;;;28.27;13.18;;;;;;;;;;6268760;22;20538;-86
2021/07/24 03:48:00;;;;;;;27.05;13.20;;;;;;;;;;6269270;22;20173;-89
2021/07/24 03:51:05;;;;;;;25.55;12.90;;;;;;;;;;6268082;22;20177;-87
2021/07/24 03:54:10;;;;;;;23.25;12.15;;;;;;;;;;6268018;22;20253;-87
2021/07/24 03:57:15;;;;;;;22.77;11.85;;;;;;;;;;6266909;22;20170;-88
2021/07/24 04:00:22;;;;;;;27.30;12.05;;;;;;;;;;6267717;22;20486;-87
2021/07/24 04:03:27;;;;;;;24.25;11.85;;;;;;;;;;6265913;22;20240;-89
2021/07/24 04:06:33;;;;;;;19.45;10.90;;;;;;;;;;6266525;22;20153;-87
2021/07/24 04:09:38;;;;;;;19.15;10.98;;;;;;;;;;6268457;22;20153;-88
2021/07/24 04:12:43;;;;;;;24.35;11.80;;;;;;;;;;6269753;22;20285;-88
2021/07/24 04:15:50;;;;;;;20.85;11.25;;;;;;;;;;6268247;22;20190;-88
2021/07/24 04:18:54;;;;;;;20.80;11.80;;;;;;;;;;6266987;22;20588;-88
2021/07/24 04:21:59;;;;;;;23.55;11.38;;;;;;;;;;6266237;22;20166;-89
2021/07/24 04:25:04;;;;;;;24.55;11.18;;;;;;;;;;6266082;22;20192;-89
2021/07/24 04:28:09;;;;;;;21.88;10.98;;;;;;;;;;6269336;22;20170;-89
2021/07/24 04:31:16;;;;;;;18.70;10.32;;;;;;;;;;6269658;22;20170;-86
2021/07/24 04:34:22;;;;;;;23.55;11.48;;;;;;;;;;6288721;22;20671;-88
2021/07/24 04:37:27;;;;;;;18.35;10.70;;;;;;;;;;6270175;22;20170;-87
2021/07/24 04:40:32;;;;;;;26.17;11.43;;;;;;;;;;6267507;22;20569;-86
2021/07/24 04:43:37;;;;;;;22.35;11.05;;;;;;;;;;6268256;22;20231;-88
2021/07/24 04:46:44;;;;;;;20.02;11.00;;;;;;;;;;6269246;22;20236;-88
2021/07/24 04:49:49;;;;;;;19.42;11.30;;;;;;;;;;6270281;22;20449;-87
2021/07/24 04:52:57;;;;;;;19.15;11.10;;;;;;;;;;6269040;22;20161;-87
2021/07/24 04:56:02;;;;;;;17.80;10.65;;;;;;;;;;6268924;22;20201;-88
2021/07/24 04:59:09;;;;;;;18.45;10.35;;;;;;;;;;6271102;22;20214;-87
2021/07/24 05:02:17;;;;;;;19.35;11.00;;;;;;;;;;6271106;22;20216;-86
2021/07/24 05:05:23;;;;;;;19.60;11.13;;;;;;;;;;6271451;22;20670;-86
2021/07/24 05:08:28;;;;;;;25.17;11.40;;;;;;;;;;6270907;22;20192;-87
2021/07/24 05:11:34;;;;;;;21.33;11.07;;;;;;;;;;6269549;22;20165;-89
2021/07/24 05:14:39;;;;;;;22.05;11.23;;;;;;;;;;6270048;22;20173;-87
2021/07/24 05:17:45;;;;;;;19.38;10.55;;;;;;;;;;6269268;22;20216;-87
2021/07/24 05:20:50;;;;;;;20.10;10.60;;;;;;;;;;6274057;22;20228;-86
2021/07/24 05:23:56;;;;;;;22.13;11.13;;;;;;;;;;6271209;22;20169;-87
2021/07/24 05:27:01;;;;;;;19.40;11.23;;;;;;;;;;6269984;22;20169;-87
2021/07/24 05:30:06;;;;;;;21.25;10.60;;;;;;;;;;6270889;22;20296;-87
2021/07/24 05:33:13;;;;;;;22.73;10.68;;;;;;;;;;6271423;22;20174;-87
2021/07/24 05:36:19;;;;;;;22.75;10.75;;;;;;;;;;6271479;22;20232;-88
2021/07/24 05:39:24;;;;;;;18.52;10.32;;;;;;;;;;6270511;22;20165;-88
2021/07/24 05:42:29;;;;;;;20.02;10.80;;;;;;;;;;6271742;22;20254;-87
2021/07/24 05:45:33;;;;;;;19.42;10.68;;;;;;;;;;6272270;22;20189;-88
2021/07/24 05:48:41;;;;;;;18.35;9.98;;;;;;;;;;6271168;22;20618;-89
2021/07/24 05:51:46;;;;;;;22.30;10.48;;;;;;;;;;6271789;22;20189;-86
2021/07/24 05:54:51;;;;;;;16.25;9.93;;;;;;;;;;6270207;22;20166;-87
2021/07/24 05:57:56;;;;;;;22.05;10.38;;;;;;;;;;6269993;22;20165;-88
2021/07/24 06:01:01;;;;;;;17.52;10.18;;;;;;;;;;6269008;22;20234;-88
2021/07/24 06:04:08;;;;;;;16.85;9.82;;;;;;;;;;6270971;22;20174;-88
2021/07/24 06:07:13;;;;;;;18.42;10.77;;;;;;;;;;6269465;22;20173;-87
2021/07/24 06:10:18;;;;;;;16.65;10.07;;;;;;;;;;6271774;22;20173;-87
2021/07/24 06:13:24;;;;;;;21.08;10.45;;;;;;;;;;6270998;22;20169;-88
2021/07/24 06:16:28;;;;;;;17.20;10.18;;;;;;;;;;6271113;22;20197;-87
2021/07/24 06:19:35;;;;;;;19.63;10.52;;;;;;;;;;6270829;22;20178;-87
2021/07/24 06:22:40;;;;;;;16.90;9.80;;;;;;;;;;6269164;22;20240;-87
2021/07/24 06:25:45;;;;;;;20.92;10.00;;;;;;;;;;6271722;22;20154;-86
2021/07/24 06:28:50;;;;;;;16.00;9.50;;;;;;;;;;6288245;22;20166;-88
2021/07/24 06:31:55;;;;;;;14.85;9.52;;;;;;;;;;6271262;22;20173;-87
2021/07/24 06:35:01;;;;;;;15.45;8.88;;;;;;;;;;6269416;22;20496;-88
2021/07/24 06:38:08;;;;;;;16.95;8.35;;;;;;;;;;6271611;22;20217;-88
2021/07/24 06:41:14;;;;;;;16.88;8.75;;;;;;;;;;6270508;22;20165;-89
2021/07/24 06:44:20;;;;;;;17.20;9.15;;;;;;;;;;6269221;22;20167;-88
2021/07/24 06:47:26;;;;;;;13.93;8.93;;;;;;;;;;6271466;22;20153;-89
2021/07/24 06:50:33;;;;;;;15.90;9.07;;;;;;;;;;6272215;22;20228;-89
2021/07/24 06:53:38;;;;;;;16.42;9.20;;;;;;;;;;6274417;22;20169;-88
2021/07/24 06:56:43;;;;;;;17.23;8.23;;;;;;;;;;6271944;22;20189;-89
2021/07/24 06:59:48;;;;;;;16.42;9.13;;;;;;;;;;6272551;22;20216;-88
2021/07/24 07:02:53;;;;;;;19.30;9.95;;;;;;;;;;6271883;22;20150;-88
2021/07/24 07:06:00;;;;;;;19.17;9.38;;;;;;;;;;6272827;22;20165;-88
2021/07/24 07:09:06;;;;;;;13.50;8.65;;;;;;;;;;6274946;22;20620;-89
2021/07/24 07:12:11;;;;;;;18.75;10.32;;;;;;;;;;6275306;22;20173;-88
2021/07/24 07:15:17;;;;;;;17.88;9.88;;;;;;;;;;6277065;22;20170;-89
2021/07/24 07:18:22;;;;;;;14.38;8.88;;;;;;;;;;6272562;22;20230;-89
2021/07/24 07:21:28;;;;;;;13.68;9.10;;;;;;;;;;6273820;22;20173;-88
2021/07/24 07:24:33;;;;;;;14.60;9.13;;;;;;;;;;6272995;22;20174;-89
2021/07/24 07:27:41;;;;;;;14.30;8.63;;;;;;;;;;6275124;22;20608;-88
2021/07/24 07:30:46;;;;;;;15.00;8.60;;;;;;;;;;6272602;22;20162;-89
2021/07/24 07:33:51;;;;;;;15.15;8.38;;;;;;;;;;6273141;22;20165;-90
2021/07/24 07:36:57;;;;;;;13.40;8.50;;;;;;;;;;6270888;22;20209;-87
2021/07/24 07:40:03;;;;;;;13.02;8.13;;;;;;;;;;6270941;22;20174;-89
2021/07/24 07:43:09;;;;;;;12.15;7.97;;;;;;;;;;6271927;22;20162;-89
2021/07/24 07:46:14;;;;;;;12.25;8.13;;;;;;;;;;6271797;22;20292;-88
2021/07/24 07:49:19;;;;;;;15.90;8.07;;;;;;;;;;6269502;22;20600;-89
2021/07/24 07:52:27;;;;;;;13.07;8.40;;;;;;;;;;6270751;22;20166;-89
2021/07/24 07:55:32;;;;;;;15.75;8.50;;;;;;;;;;6269474;22;20169;-88
2021/07/24 07:58:37;;;;;;;15.05;8.32;;;;;;;;;;6270847;22;20170;-90
2021/07/24 08:01:42;;;;;;;13.10;8.38;;;;;;;;;;6291047;22;20232;-89
2021/07/24 08:04:49;;;;;;;15.23;8.77;;;;;;;;;;6270256;22;20170;-90
2021/07/24 08:07:55;;;;;;;11.52;7.88;;;;;;;;;;6271712;22;20169;-88
2021/07/24 08:11:01;;;;;;;15.02;8.32;;;;;;;;;;6271411;22;20392;-89
2021/07/24 08:14:06;;;;;;;13.70;8.15;;;;;;;;;;6270353;22;20196;-87
2021/07/24 08:17:12;;;;;;;14.75;8.20;;;;;;;;;;6270833;22;20165;-88
2021/07/24 08:20:17;;;;;;;10.88;7.75;;;;;;;;;;6271793;22;20169;-89
2021/07/24 08:23:23;;;;;;;14.82;7.72;;;;;;;;;;6275035;22;20497;-89
2021/07/24 08:26:28;;;;;;;11.95;8.50;;;;;;;;;;6272240;22;20259;-88
2021/07/24 08:29:33;;;;;;;12.90;8.18;;;;;;;;;;6269977;22;20208;-90
2021/07/24 08:32:49;;;;;;;13.52;8.18;;;;;;;;;;6270265;22;20169;-89
2021/07/24 08:35:55;;;;;;;12.25;8.93;;;;;;;;;;6290240;22;20164;-90
2021/07/24 08:39:02;;;;;;;14.00;9.10;;;;;;;;;;6268929;22;20165;-88
2021/07/24 08:42:07;;;;;;;13.20;8.88;;;;;;;;;;6270067;22;20230;-90
2021/07/24 08:45:14;;;;;;;15.40;9.15;;;;;;;;;;6269722;22;20204;-88
2021/07/24 08:48:20;;;;;;;15.50;9.23;;;;;;;;;;6269970;22;20170;-88
2021/07/24 08:51:34;;;;;;;21.38;9.02;;;;;;;;;;6270184;22;20169;-88
2021/07/24 08:54:43;;;;;;;13.18;9.02;;;;;;;;;;6269402;22;20251;-89
2021/07/24 08:57:48;;;;;;;12.95;8.75;;;;;;;;;;6268586;22;20166;-89
2021/07/24 09:00:53;;;;;;;13.38;8.40;;;;;;;;;;6269384;22;20173;-89
2021/07/24 09:04:04;;;;;;;12.45;8.60;;;;;;;;;;6270106;22;20169;-90
2021/07/24 09:07:09;;;;;;;14.80;8.52;;;;;;;;;;6269084;22;20201;-89
2021/07/24 09:10:16;;;;;;;13.93;9.07;;;;;;;;;;6269783;22;20220;-89
2021/07/24 09:13:22;;;;;;;14.32;9.30;;;;;;;;;;6269005;22;20166;-89
2021/07/24 09:16:29;;;;;;;13.32;8.63;;;;;;;;;;6269862;22;20557;-88
2021/07/24 09:19:34;;;;;;;10.60;8.32;;;;;;;;;;6272058;22;20165;-90
2021/07/24 09:22:40;;;;;;;12.27;8.32;;;;;;;;;;6269831;22;20507;-87
2021/07/24 09:25:47;;;;;;;11.88;8.35;;;;;;;;;;6269483;22;20207;-88
2021/07/24 09:29:09;;;;;;;16.55;8.85;;;;;;;;;;6270638;22;20153;-88
2021/07/24 09:32:14;;;;;;;15.52;8.40;;;;;;;;;;6287369;22;20526;-89
2021/07/24 09:35:35;;;;;;;13.77;8.90;;;;;;;;;;6270973;22;20196;-88
2021/07/24 09:38:40;;;;;;;13.73;8.20;;;;;;;;;;6269705;22;20169;-87
2021/07/24 09:41:47;;;;;;;15.43;8.90;;;;;;;;;;6291617;22;20695;-88
2021/07/24 09:45:06;;;;;;;14.05;8.55;;;;;;;;;;6275472;22;20200;-89
2021/07/24 09:48:17;;;;;;;12.68;8.52;;;;;;;;;;6270160;22;20229;-89
2021/07/24 09:51:33;;;;;;;10.80;8.30;;;;;;;;;;6269180;22;20607;-89
2021/07/24 09:54:38;;;;;;;16.15;7.80;;;;;;;;;;6270186;22;20242;-88
2021/07/24 09:57:45;;;;;;;12.90;7.60;;;;;;;;;;6269149;22;20164;-88
2021/07/24 10:00:49;;;;;;;13.13;7.90;;;;;;;;;;6269473;22;20246;-90
2021/07/24 10:04:04;;;;;;;12.10;8.60;;;;;;;;;;6270199;22;20173;-88
2021/07/24 10:07:10;;;;;;;17.05;8.68;;;;;;;;;;6271310;22;20288;-89
2021/07/24 10:10:17;;;;;;;12.77;8.30;;;;;;;;;;6269767;22;20217;-89
2021/07/24 10:13:24;;;;;;;15.10;7.75;;;;;;;;;;6269918;22;20152;-88
2021/07/24 10:16:30;;;;;;;13.52;8.30;;;;;;;;;;6269398;22;20220;-89
2021/07/24 10:19:35;;;;;;;14.63;8.23;;;;;;;;;;6285725;22;20243;-88
2021/07/24 10:22:40;;;;;;;13.85;8.30;;;;;;;;;;6267345;22;20496;-88
2021/07/24 10:25:54;;;;;;;11.02;7.90;;;;;;;;;;6289143;22;20148;-89
2021/07/24 10:29:04;;;;;;;11.88;8.05;;;;;;;;;;6269642;22;20166;-90
2021/07/24 10:32:10;;;;;;;14.82;8.23;;;;;;;;;;6267703;22;20247;-88
2021/07/24 10:35:15;;;;;;;10.43;7.82;;;;;;;;;;6268969;22;20204;-89
2021/07/24 10:38:31;;;;;;;13.40;8.38;;;;;;;;;;6274289;22;20184;-88
2021/07/24 10:41:40;;;;;;;15.48;8.68;;;;;;;;;;6270452;22;20157;-88
2021/07/24 10:44:46;;;;;;;10.98;8.23;;;;;;;;;;6269215;22;20196;-88
2021/07/24 10:48:07;;;;;;;10.77;8.35;;;;;;;;;;6269711;22;20192;-89
2021/07/24 10:51:15;;;;;;;10.65;7.53;;;;;;;;;;6268977;22;20513;-88
2021/07/24 10:54:21;;;;;;;15.00;7.88;;;;;;;;;;6270497;22;20153;-88
2021/07/24 10:57:47;;;;;;;12.45;8.05;;;;;;;;;;6268403;22;20165;-89
2021/07/24 11:00:54;;;;;;;14.40;7.80;;;;;;;;;;6267669;22;20211;-89
2021/07/24 11:03:59;;;;;;;13.80;8.13;;;;;;;;;;6267880;22;20172;-89
2021/07/24 11:07:24;;;;;;;13.43;8.25;;;;;;;;;;6269434;22;20192;-88
2021/07/24 11:10:28;;;;;;;17.67;7.97;;;;;;;;;;6265636;22;20189;-88
2021/07/24 11:13:49;;;;;;;12.55;7.55;;;;;;;;;;6266658;22;20173;-88
2021/07/24 11:17:18;;;;;;;11.35;7.07;;;;;;;;;;6270800;22;20219;-87
2021/07/24 11:20:25;;;;;;;13.15;7.72;;;;;;;;;;6269285;22;20180;-89
2021/07/24 11:23:30;;;;;;;11.98;8.05;;;;;;;;;;6266420;22;20251;-89
2021/07/24 11:26:35;;;;;;;11.65;7.55;;;;;;;;;;6267180;22;20197;-89
2021/07/24 11:29:41;;;;;;;10.98;7.97;;;;;;;;;;6266067;22;20208;-88
2021/07/24 11:32:46;;;;;;;14.68;8.07;;;;;;;;;;6266722;22;20185;-88
2021/07/24 11:35:55;;;;;;;12.52;7.07;;;;;;;;;;6285533;22;20258;-88
2021/07/24 11:39:00;;;;;;;10.88;7.50;;;;;;;;;;6265637;22;20170;-86
2021/07/24 11:42:21;;;;;;;11.93;7.72;;;;;;;;;;6286146;22;20212;-88
2021/07/24 11:45:26;;;;;;;12.77;8.05;;;;;;;;;;6268686;22;20181;-88
2021/07/24 11:48:31;;;;;;;12.85;7.45;;;;;;;;;;6266865;22;20621;-89
2021/07/24 11:51:38;;;;;;;14.85;7.82;;;;;;;;;;6268288;22;20170;-88
2021/07/24 11:54:43;;;;;;;11.63;7.72;;;;;;;;;;6267477;22;20181;-89
2021/07/24 11:57:48;;;;;;;10.32;8.00;;;;;;;;;;6267249;22;20161;-88
2021/07/24 12:00:55;;;;;;;11.98;7.43;;;;;;;;;;6266753;22;20616;-89
2021/07/24 12:04:07;;;;;;;11.73;7.60;;;;;;;;;;6286335;22;20236;-87
2021/07/24 12:07:15;;;;;;;10.60;7.03;;;;;;;;;;6269568;22;20232;-88
2021/07/24 12:10:20;;;;;;;14.00;7.75;;;;;;;;;;6270332;22;20173;-88
2021/07/24 12:13:26;;;;;;;18.20;7.68;;;;;;;;;;6267898;22;20228;-88
2021/07/24 12:16:35;;;;;;;12.73;7.55;;;;;;;;;;6268573;22;20237;-89
2021/07/24 12:19:41;;;;;;;13.23;7.68;;;;;;;;;;6268499;22;20177;-89
2021/07/24 12:22:47;;;;;;;13.35;8.10;;;;;;;;;;6267723;22;20471;-87
2021/07/24 12:26:08;;;;;;;15.13;8.07;;;;;;;;;;6269042;22;20173;-89
2021/07/24 12:29:24;;;;;;;13.35;8.07;;;;;;;;;;6268100;22;20189;-89
2021/07/24 12:32:38;;;;;;;13.52;7.65;;;;;;;;;;6269610;22;20169;-89
2021/07/24 12:35:43;;;;;;;12.68;7.88;;;;;;;;;;6271766;22;20594;-88
2021/07/24 12:38:51;;;;;;;12.13;7.80;;;;;;;;;;6272132;22;20308;-88
2021/07/24 12:42:00;;;;;;;13.23;8.07;;;;;;;;;;6272913;22;20169;-89
2021/07/24 12:45:06;;;;;;;11.25;8.02;;;;;;;;;;6268601;22;20212;-87
2021/07/24 12:48:17;;;;;;;13.50;8.23;;;;;;;;;;6268307;22;20185;-88
2021/07/24 12:51:26;;;;;;;14.15;8.15;;;;;;;;;;6268343;22;20165;-88
2021/07/24 12:54:33;;;;;;;13.93;8.30;;;;;;;;;;6266585;22;20170;-88
2021/07/24 12:57:39;;;;;;;12.30;8.20;;;;;;;;;;6266208;22;20165;-88
2021/07/24 13:00:43;;;;;;;17.00;8.10;;;;;;;;;;6266475;22;20165;-86
2021/07/24 13:03:48;;;;;;;12.73;7.78;;;;;;;;;;6268417;22;20229;-89
2021/07/24 13:06:54;;;;;;;10.43;7.45;;;;;;;;;;6267405;22;20165;-90
2021/07/24 13:10:00;;;;;;;18.25;8.50;;;;;;;;;;6267680;22;20173;-89
2021/07/24 13:13:05;;;;;;;13.15;7.95;;;;;;;;;;6266413;22;20169;-88
2021/07/24 13:16:11;;;;;;;13.45;8.23;;;;;;;;;;6265685;22;20161;-89
2021/07/24 13:19:16;;;;;;;15.10;7.65;;;;;;;;;;6268708;22;20157;-88
2021/07/24 13:22:21;;;;;;;16.05;8.20;;;;;;;;;;6268714;22;20172;-89
2021/07/24 13:25:48;;;;;;;13.43;8.00;;;;;;;;;;6267702;22;20165;-89
2021/07/24 13:28:52;;;;;;;14.93;8.45;;;;;;;;;;6265027;22;20308;-88
2021/07/24 13:31:58;;;;;;;13.15;7.85;;;;;;;;;;6265937;22;20627;-89
2021/07/24 13:35:05;;;;;;;16.42;8.25;;;;;;;;;;6268372;22;20216;-89
2021/07/24 13:38:11;;;;;;;14.45;8.07;;;;;;;;;;6267166;22;20169;-88
2021/07/24 13:41:17;;;;;;;14.18;8.43;;;;;;;;;;6265581;22;20211;-89
2021/07/24 13:44:23;;;;;;;19.08;8.10;;;;;;;;;;6267411;22;20189;-89
2021/07/24 13:47:29;;;;;;;15.10;7.93;;;;;;;;;;6264210;22;20508;-86
2021/07/24 13:50:34;;;;;;;21.70;8.27;;;;;;;;;;6267438;22;20191;-88
2021/07/24 13:53:41;;;;;;;13.55;8.02;;;;;;;;;;6270369;22;20256;-89
2021/07/24 13:56:47;;;;;;;15.15;8.15;;;;;;;;;;6267025;22;20169;-88
2021/07/24 13:59:52;;;;;;;14.10;8.10;;;;;;;;;;6267107;22;20165;-88
2021/07/24 14:02:57;;;;;;;10.07;7.60;;;;;;;;;;6266440;22;20263;-88
2021/07/24 14:06:03;;;;;;;11.25;7.80;;;;;;;;;;6265734;22;20169;-88
2021/07/24 14:09:09;;;;;;;13.13;7.97;;;;;;;;;;6265709;22;20195;-90
2021/07/24 14:12:15;;;;;;;14.35;8.30;;;;;;;;;;6266217;22;20169;-89
2021/07/24 14:15:20;;;;;;;12.43;7.95;;;;;;;;;;6267396;22;20170;-89
2021/07/24 15:28:50;;;;;;;18.10;8.77;;;;;;;;;;6251048;22;20240;-87
2021/07/24 15:31:56;;;;;;;13.77;8.77;;;;;;;;;;6290320;22;20285;-87
2021/07/24 15:35:01;;;;;;;14.48;8.13;;;;;;;;;;6268828;22;20224;-87
2021/07/24 15:38:07;;;;;;;15.38;9.20;;;;;;;;;;6289362;22;20166;-88
2021/07/24 15:41:12;;;;;;;14.13;8.65;;;;;;;;;;6285483;22;20244;-89
2021/07/24 15:44:18;;;;;;;18.67;9.55;;;;;;;;;;6288938;22;20244;-90
2021/07/24 15:47:23;;;;;;;15.55;8.60;;;;;;;;;;6269169;22;20170;-89
2021/07/24 15:50:29;;;;;;;31.50;9.40;;;;;;;;;;6284893;22;20353;-87
2021/07/24 15:53:34;;;;;;;14.80;8.85;;;;;;;;;;6267745;22;20248;-90
2021/07/24 15:56:39;;;;;;;16.92;9.00;;;;;;;;;;6284853;22;20173;-89
2021/07/24 15:59:45;;;;;;;18.10;9.00;;;;;;;;;;6287281;22;20513;-88
2021/07/24 16:02:51;;;;;;;21.80;8.93;;;;;;;;;;6266178;22;20186;-89
2021/07/24 16:05:57;;;;;;;17.52;10.77;;;;;;;;;;6284062;22;20236;-89
2021/07/24 16:09:02;;;;;;;23.30;9.43;;;;;;;;;;6267473;22;20640;-86
2021/07/24 16:12:08;;;;;;;15.63;8.80;;;;;;;;;;6267770;22;20166;-90
2021/07/24 16:15:14;;;;;;;19.27;9.00;;;;;;;;;;6267477;22;20173;-88
2021/07/24 16:18:19;;;;;;;17.17;9.20;;;;;;;;;;6286088;22;20173;-86
2021/07/24 16:21:25;;;;;;;17.10;9.63;;;;;;;;;;6284649;22;20240;-88
2021/07/24 16:24:30;;;;;;;21.33;9.98;;;;;;;;;;6268185;22;20173;-89
2021/07/24 16:27:35;;;;;;;19.35;9.57;;;;;;;;;;6286368;22;20170;-89
2021/07/24 16:30:41;;;;;;;17.35;9.77;;;;;;;;;;6284709;22;20220;-84
2021/07/24 16:33:46;;;;;;;17.65;9.32;;;;;;;;;;6283619;22;20257;-88
2021/07/24 16:36:51;;;;;;;16.77;9.77;;;;;;;;;;6268565;22;20348;-86
2021/07/24 16:39:57;;;;;;;16.45;9.35;;;;;;;;;;6286667;22;20173;-88
2021/07/24 16:43:02;;;;;;;18.13;9.80;;;;;;;;;;6286760;22;20174;-86
2021/07/24 16:49:29;;;;;;;20.27;10.35;;;;;;;;;;6273811;22;20194;-88
2021/07/24 16:52:35;;;;;;;19.55;9.98;;;;;;;;;;6269843;22;20693;-88
2021/07/24 16:55:40;;;;;;;21.00;10.07;;;;;;;;;;6268945;22;20189;-87
2021/07/24 16:58:46;;;;;;;19.92;11.13;;;;;;;;;;6286198;22;20174;-86
2021/07/24 17:01:53;;;;;;;19.00;10.52;;;;;;;;;;6267881;22;20651;-87
2021/07/24 17:04:58;;;;;;;18.13;10.50;;;;;;;;;;6267363;22;20170;-88
2021/07/24 17:08:04;;;;;;;18.95;10.38;;;;;;;;;;6267460;22;20169;-86
2021/07/24 17:11:09;;;;;;;17.02;10.50;;;;;;;;;;6286859;22;20339;-88
2021/07/24 17:14:15;;;;;;;22.88;11.20;;;;;;;;;;6267565;22;20181;-88
2021/07/24 17:17:22;;;;;;;23.00;11.85;;;;;;;;;;6287557;22;20219;-86
2021/07/24 17:20:27;;;;;;;19.15;11.13;;;;;;;;;;6270038;22;20165;-89
2021/07/24 17:23:32;;;;;;;21.23;11.20;;;;;;;;;;6269723;22;20704;-89
2021/07/24 17:26:37;;;;;;;19.02;11.23;;;;;;;;;;6268220;22;20169;-87
2021/07/24 17:29:42;;;;;;;22.40;12.20;;;;;;;;;;6268662;22;20221;-89
2021/07/24 17:32:49;;;;;;;23.25;11.60;;;;;;;;;;6269574;22;20212;-88
2021/07/24 17:35:55;;;;;;;19.08;11.57;;;;;;;;;;6269956;22;20204;-89
2021/07/24 17:39:00;;;;;;;22.58;11.70;;;;;;;;;;6265999;22;20174;-87
2021/07/24 17:42:08;;;;;;;19.27;11.82;;;;;;;;;;6267526;22;20170;-88
2021/07/24 17:45:13;;;;;;;18.45;11.27;;;;;;;;;;6266929;22;20178;-88
2021/07/24 17:48:20;;;;;;;20.55;11.82;;;;;;;;;;6264266;22;20480;-88
2021/07/24 17:51:25;;;;;;;22.05;12.85;;;;;;;;;;6268295;22;20192;-87
2021/07/24 17:54:30;;;;;;;22.77;11.88;;;;;;;;;;6268484;22;20177;-89
2021/07/24 17:57:35;;;;;;;20.90;12.88;;;;;;;;;;6265884;22;20173;-88
2021/07/24 18:00:41;;;;;;;25.00;13.88;;;;;;;;;;6267404;22;20484;-88
2021/07/24 18:03:49;;;;;;;24.65;11.18;;;;;;;;;;6287221;22;20170;-88
2021/07/24 18:06:54;;;;;;;22.70;12.23;;;;;;;;;;6267658;22;20169;-87
2021/07/24 18:09:59;;;;;;;23.30;12.32;;;;;;;;;;6266675;22;20193;-86
2021/07/24 18:13:05;;;;;;;23.08;13.25;;;;;;;;;;6282803;22;20624;-88
2021/07/24 18:16:13;;;;;;;23.55;14.63;;;;;;;;;;6267035;22;20162;-87
2021/07/24 18:19:19;;;;;;;27.15;13.02;;;;;;;;;;6266394;22;20169;-89
2021/07/24 18:22:25;;;;;;;23.15;12.32;;;;;;;;;;6266523;22;20173;-87
2021/07/24 18:25:30;;;;;;;25.60;12.60;;;;;;;;;;6267878;22;20170;-87
2021/07/24 18:28:35;;;;;;;24.83;12.77;;;;;;;;;;6266968;22;20271;-85
2021/07/24 18:31:40;;;;;;;28.02;13.30;;;;;;;;;;6266335;22;20213;-87
2021/07/24 18:34:47;;;;;;;24.13;13.63;;;;;;;;;;6269540;22;20185;-86
2021/07/24 18:37:52;;;;;;;26.17;13.45;;;;;;;;;;6266225;22;20170;-88
2021/07/24 18:40:58;;;;;;;22.35;13.68;;;;;;;;;;6266354;22;20177;-88
2021/07/24 18:44:03;;;;;;;28.40;13.13;;;;;;;;;;6266073;22;20218;-87
2021/07/24 18:47:08;;;;;;;24.70;13.35;;;;;;;;;;6264692;22;20197;-86
2021/07/24 18:50:15;;;;;;;23.88;13.43;;;;;;;;;;6265923;22;20189;-87
2021/07/24 18:53:19;;;;;;;26.25;13.63;;;;;;;;;;6265239;22;20627;-86
2021/07/24 18:56:24;;;;;;;32.10;15.63;;;;;;;;;;6266676;22;20624;-88
2021/07/24 18:59:29;;;;;;;26.52;15.50;;;;;;;;;;6266374;22;20201;-89
2021/07/24 19:02:35;;;;;;;35.80;18.70;;;;;;;;;;6264108;22;20173;-87
2021/07/24 19:05:43;;;;;;;33.25;16.65;;;;;;;;;;6264658;22;20237;-88
2021/07/24 19:08:48;;;;;;;28.52;16.63;;;;;;;;;;6266647;22;20193;-89
2021/07/24 19:11:53;;;;;;;30.98;16.15;;;;;;;;;;6265107;22;20170;-87
2021/07/24 19:14:59;;;;;;;31.88;16.48;;;;;;;;;;6267557;22;20289;-87
2021/07/24 19:18:04;;;;;;;29.67;17.83;;;;;;;;;;6266103;22;20221;-87
2021/07/24 19:21:10;;;;;;;30.85;17.23;;;;;;;;;;6266280;22;20671;-88
2021/07/24 19:24:15;;;;;;;39.85;21.35;;;;;;;;;;6266241;22;20501;-86
2021/07/24 19:27:21;;;;;;;34.55;18.15;;;;;;;;;;6265159;22;20173;-85
2021/07/24 19:30:26;;;;;;;29.08;15.95;;;;;;;;;;6266021;22;20532;-86